sensor_id;sensor_type;location;lat;lon;timestamp;P1;durP1;ratioP1;P2;durP2;ratioP2
35290;SDS011;21411;50.024;19.220;2024-02-15T00:00:19;128.70;;;90.10;;
35290;SDS011;21411;50.024;19.220;2024-02-15T00:03:06;129.70;;;90.00;;
35290;SDS011;21411;50.024;19.220;2024-02-15T00:05:33;136.10;;;91.90;;
35290;SDS011;21411;50.024;19.220;2024-02-15T00:08:03;129.90;;;91.50;;
35290;SDS011;21411;50.024;19.220;2024-02-15T00:10:30;132.40;;;90.60;;
35290;SDS011;21411;50.024;19.220;2024-02-15T00:12:57;141.60;;;99.40;;
35290;SDS011;21411;50.024;19.220;2024-02-15T00:15:24;138.30;;;94.70;;
35290;SDS011;21411;50.024;19.220;2024-02-15T00:17:51;134.40;;;92.10;;
35290;SDS011;21411;50.024;19.220;2024-02-15T00:20:18;135.40;;;97.40;;
35290;SDS011;21411;50.024;19.220;2024-02-15T00:22:46;134.50;;;94.00;;
35290;SDS011;21411;50.024;19.220;2024-02-15T00:25:14;136.10;;;93.50;;
35290;SDS011;21411;50.024;19.220;2024-02-15T00:27:41;136.50;;;94.90;;
35290;SDS011;21411;50.024;19.220;2024-02-15T00:30:09;132.60;;;92.90;;
35290;SDS011;21411;50.024;19.220;2024-02-15T00:32:36;129.40;;;90.50;;
35290;SDS011;21411;50.024;19.220;2024-02-15T00:35:03;135.10;;;94.40;;
35290;SDS011;21411;50.024;19.220;2024-02-15T00:37:34;140.80;;;92.50;;
35290;SDS011;21411;50.024;19.220;2024-02-15T00:40:00;132.50;;;93.80;;
35290;SDS011;21411;50.024;19.220;2024-02-15T00:42:30;132.90;;;92.50;;
35290;SDS011;21411;50.024;19.220;2024-02-15T00:44:59;139.10;;;94.30;;
35290;SDS011;21411;50.024;19.220;2024-02-15T00:47:26;139.50;;;97.60;;
35290;SDS011;21411;50.024;19.220;2024-02-15T00:49:54;131.50;;;90.70;;
35290;SDS011;21411;50.024;19.220;2024-02-15T00:52:22;131.60;;;91.70;;
35290;SDS011;21411;50.024;19.220;2024-02-15T00:54:49;135.80;;;91.90;;
35290;SDS011;21411;50.024;19.220;2024-02-15T00:57:16;124.90;;;89.90;;
35290;SDS011;21411;50.024;19.220;2024-02-15T00:59:43;126.30;;;92.30;;
35290;SDS011;21411;50.024;19.220;2024-02-15T01:02:09;137.20;;;95.70;;
35290;SDS011;21411;50.024;19.220;2024-02-15T01:04:36;136.30;;;96.60;;
35290;SDS011;21411;50.024;19.220;2024-02-15T01:07:02;129.30;;;93.60;;
35290;SDS011;21411;50.024;19.220;2024-02-15T01:09:29;135.10;;;95.80;;
35290;SDS011;21411;50.024;19.220;2024-02-15T01:11:56;137.50;;;94.50;;
35290;SDS011;21411;50.024;19.220;2024-02-15T01:14:22;133.70;;;93.30;;
35290;SDS011;21411;50.024;19.220;2024-02-15T01:16:49;130.40;;;94.10;;
35290;SDS011;21411;50.024;19.220;2024-02-15T01:19:16;141.80;;;99.40;;
35290;SDS011;21411;50.024;19.220;2024-02-15T01:21:42;135.80;;;91.40;;
35290;SDS011;21411;50.024;19.220;2024-02-15T01:24:10;130.00;;;92.10;;
35290;SDS011;21411;50.024;19.220;2024-02-15T01:26:37;130.60;;;94.20;;
35290;SDS011;21411;50.024;19.220;2024-02-15T01:29:03;132.40;;;92.60;;
35290;SDS011;21411;50.024;19.220;2024-02-15T01:31:30;132.40;;;95.90;;
35290;SDS011;21411;50.024;19.220;2024-02-15T01:33:57;130.20;;;92.60;;
35290;SDS011;21411;50.024;19.220;2024-02-15T01:36:23;126.80;;;90.30;;
35290;SDS011;21411;50.024;19.220;2024-02-15T01:38:51;125.50;;;86.70;;
35290;SDS011;21411;50.024;19.220;2024-02-15T01:41:17;124.20;;;89.40;;
35290;SDS011;21411;50.024;19.220;2024-02-15T01:43:44;129.30;;;87.50;;
35290;SDS011;21411;50.024;19.220;2024-02-15T01:46:12;128.60;;;87.30;;
35290;SDS011;21411;50.024;19.220;2024-02-15T01:48:40;123.70;;;90.20;;
35290;SDS011;21411;50.024;19.220;2024-02-15T01:51:08;127.20;;;94.20;;
35290;SDS011;21411;50.024;19.220;2024-02-15T01:53:36;131.50;;;91.50;;
35290;SDS011;21411;50.024;19.220;2024-02-15T01:56:04;133.00;;;92.70;;
35290;SDS011;21411;50.024;19.220;2024-02-15T01:58:31;129.80;;;89.40;;
35290;SDS011;21411;50.024;19.220;2024-02-15T02:00:59;119.80;;;85.70;;
35290;SDS011;21411;50.024;19.220;2024-02-15T02:03:28;127.90;;;91.60;;
35290;SDS011;21411;50.024;19.220;2024-02-15T02:05:54;128.00;;;91.10;;
35290;SDS011;21411;50.024;19.220;2024-02-15T02:08:22;123.60;;;88.70;;
35290;SDS011;21411;50.024;19.220;2024-02-15T02:10:49;122.60;;;86.40;;
35290;SDS011;21411;50.024;19.220;2024-02-15T02:13:16;120.40;;;87.60;;
35290;SDS011;21411;50.024;19.220;2024-02-15T02:15:43;121.30;;;86.70;;
35290;SDS011;21411;50.024;19.220;2024-02-15T02:18:10;118.60;;;86.40;;
35290;SDS011;21411;50.024;19.220;2024-02-15T02:20:37;132.50;;;94.10;;
35290;SDS011;21411;50.024;19.220;2024-02-15T02:23:07;121.60;;;88.50;;
35290;SDS011;21411;50.024;19.220;2024-02-15T02:25:36;121.70;;;93.10;;
35290;SDS011;21411;50.024;19.220;2024-02-15T02:28:03;123.20;;;95.80;;
35290;SDS011;21411;50.024;19.220;2024-02-15T02:30:29;126.10;;;97.40;;
35290;SDS011;21411;50.024;19.220;2024-02-15T02:32:56;123.70;;;96.20;;
35290;SDS011;21411;50.024;19.220;2024-02-15T02:35:26;130.20;;;97.60;;
35290;SDS011;21411;50.024;19.220;2024-02-15T02:37:53;129.20;;;97.00;;
35290;SDS011;21411;50.024;19.220;2024-02-15T02:40:20;130.60;;;94.80;;
35290;SDS011;21411;50.024;19.220;2024-02-15T02:45:22;126.90;;;89.90;;
35290;SDS011;21411;50.024;19.220;2024-02-15T02:47:49;124.10;;;86.70;;
35290;SDS011;21411;50.024;19.220;2024-02-15T02:50:16;120.90;;;86.00;;
35290;SDS011;21411;50.024;19.220;2024-02-15T02:52:43;123.10;;;88.40;;
35290;SDS011;21411;50.024;19.220;2024-02-15T02:55:10;114.00;;;85.80;;
35290;SDS011;21411;50.024;19.220;2024-02-15T02:57:37;116.30;;;82.90;;
35290;SDS011;21411;50.024;19.220;2024-02-15T03:02:59;114.40;;;82.20;;
35290;SDS011;21411;50.024;19.220;2024-02-15T03:05:27;108.40;;;83.60;;
35290;SDS011;21411;50.024;19.220;2024-02-15T03:07:53;105.70;;;82.40;;
35290;SDS011;21411;50.024;19.220;2024-02-15T03:10:20;111.00;;;82.60;;
35290;SDS011;21411;50.024;19.220;2024-02-15T03:12:47;107.70;;;83.20;;
35290;SDS011;21411;50.024;19.220;2024-02-15T03:15:13;109.50;;;83.10;;
35290;SDS011;21411;50.024;19.220;2024-02-15T03:17:40;114.30;;;85.50;;
35290;SDS011;21411;50.024;19.220;2024-02-15T03:20:08;110.00;;;81.70;;
35290;SDS011;21411;50.024;19.220;2024-02-15T03:22:53;111.10;;;80.40;;
35290;SDS011;21411;50.024;19.220;2024-02-15T03:25:21;109.80;;;82.30;;
35290;SDS011;21411;50.024;19.220;2024-02-15T03:27:52;109.70;;;84.40;;
35290;SDS011;21411;50.024;19.220;2024-02-15T03:30:20;113.20;;;85.30;;
35290;SDS011;21411;50.024;19.220;2024-02-15T03:32:48;111.50;;;82.90;;
35290;SDS011;21411;50.024;19.220;2024-02-15T03:35:18;113.50;;;85.50;;
35290;SDS011;21411;50.024;19.220;2024-02-15T03:37:45;108.50;;;85.50;;
35290;SDS011;21411;50.024;19.220;2024-02-15T03:40:12;111.30;;;82.50;;
35290;SDS011;21411;50.024;19.220;2024-02-15T03:42:40;109.50;;;82.80;;
35290;SDS011;21411;50.024;19.220;2024-02-15T03:45:08;110.90;;;81.80;;
35290;SDS011;21411;50.024;19.220;2024-02-15T03:47:35;101.20;;;79.80;;
35290;SDS011;21411;50.024;19.220;2024-02-15T03:50:02;108.10;;;81.70;;
35290;SDS011;21411;50.024;19.220;2024-02-15T03:52:29;107.50;;;78.10;;
35290;SDS011;21411;50.024;19.220;2024-02-15T03:54:57;110.20;;;78.60;;
35290;SDS011;21411;50.024;19.220;2024-02-15T03:57:24;102.20;;;74.00;;
35290;SDS011;21411;50.024;19.220;2024-02-15T03:59:50;101.70;;;75.10;;
35290;SDS011;21411;50.024;19.220;2024-02-15T04:02:19;100.00;;;75.10;;
35290;SDS011;21411;50.024;19.220;2024-02-15T04:04:45;95.90;;;73.00;;
35290;SDS011;21411;50.024;19.220;2024-02-15T04:07:13;94.30;;;71.00;;
35290;SDS011;21411;50.024;19.220;2024-02-15T04:09:40;95.50;;;71.20;;
35290;SDS011;21411;50.024;19.220;2024-02-15T04:12:07;95.20;;;70.10;;
35290;SDS011;21411;50.024;19.220;2024-02-15T04:14:34;96.50;;;71.00;;
35290;SDS011;21411;50.024;19.220;2024-02-15T04:17:00;95.40;;;72.20;;
35290;SDS011;21411;50.024;19.220;2024-02-15T04:19:28;95.80;;;73.60;;
35290;SDS011;21411;50.024;19.220;2024-02-15T04:21:54;99.50;;;74.80;;
35290;SDS011;21411;50.024;19.220;2024-02-15T04:24:24;100.20;;;74.20;;
35290;SDS011;21411;50.024;19.220;2024-02-15T04:26:52;94.70;;;71.80;;
35290;SDS011;21411;50.024;19.220;2024-02-15T04:29:19;93.70;;;69.70;;
35290;SDS011;21411;50.024;19.220;2024-02-15T04:31:46;98.40;;;74.60;;
35290;SDS011;21411;50.024;19.220;2024-02-15T04:34:16;97.70;;;73.10;;
35290;SDS011;21411;50.024;19.220;2024-02-15T04:36:46;98.10;;;73.00;;
35290;SDS011;21411;50.024;19.220;2024-02-15T04:39:19;95.80;;;71.00;;
35290;SDS011;21411;50.024;19.220;2024-02-15T04:41:56;91.50;;;68.50;;
35290;SDS011;21411;50.024;19.220;2024-02-15T04:44:22;100.60;;;70.10;;
35290;SDS011;21411;50.024;19.220;2024-02-15T04:46:53;99.60;;;73.40;;
35290;SDS011;21411;50.024;19.220;2024-02-15T04:49:21;99.90;;;74.70;;
35290;SDS011;21411;50.024;19.220;2024-02-15T04:51:49;94.40;;;70.90;;
35290;SDS011;21411;50.024;19.220;2024-02-15T04:54:15;95.20;;;70.70;;
35290;SDS011;21411;50.024;19.220;2024-02-15T04:56:44;95.90;;;74.30;;
35290;SDS011;21411;50.024;19.220;2024-02-15T04:59:12;99.80;;;74.00;;
35290;SDS011;21411;50.024;19.220;2024-02-15T05:01:41;96.00;;;72.50;;
35290;SDS011;21411;50.024;19.220;2024-02-15T05:06:38;97.50;;;72.90;;
35290;SDS011;21411;50.024;19.220;2024-02-15T05:09:05;93.60;;;72.10;;
35290;SDS011;21411;50.024;19.220;2024-02-15T05:11:34;95.50;;;75.10;;
35290;SDS011;21411;50.024;19.220;2024-02-15T05:14:02;96.80;;;75.90;;
35290;SDS011;21411;50.024;19.220;2024-02-15T05:16:33;94.10;;;74.20;;
35290;SDS011;21411;50.024;19.220;2024-02-15T05:19:00;99.50;;;73.90;;
35290;SDS011;21411;50.024;19.220;2024-02-15T05:21:27;97.50;;;74.10;;
35290;SDS011;21411;50.024;19.220;2024-02-15T05:23:54;99.80;;;77.00;;
35290;SDS011;21411;50.024;19.220;2024-02-15T05:26:22;99.60;;;74.80;;
35290;SDS011;21411;50.024;19.220;2024-02-15T05:28:49;96.90;;;74.30;;
35290;SDS011;21411;50.024;19.220;2024-02-15T05:31:20;102.30;;;74.90;;
35290;SDS011;21411;50.024;19.220;2024-02-15T05:33:48;104.70;;;76.30;;
35290;SDS011;21411;50.024;19.220;2024-02-15T05:36:19;104.40;;;75.00;;
35290;SDS011;21411;50.024;19.220;2024-02-15T05:38:47;100.10;;;75.50;;
35290;SDS011;21411;50.024;19.220;2024-02-15T05:41:20;110.90;;;77.50;;
35290;SDS011;21411;50.024;19.220;2024-02-15T05:43:47;107.20;;;78.80;;
35290;SDS011;21411;50.024;19.220;2024-02-15T05:46:20;102.00;;;75.70;;
35290;SDS011;21411;50.024;19.220;2024-02-15T05:48:50;114.00;;;80.80;;
35290;SDS011;21411;50.024;19.220;2024-02-15T05:51:18;106.70;;;78.80;;
35290;SDS011;21411;50.024;19.220;2024-02-15T05:53:44;113.80;;;79.80;;
35290;SDS011;21411;50.024;19.220;2024-02-15T05:56:11;107.30;;;80.90;;
35290;SDS011;21411;50.024;19.220;2024-02-15T05:58:38;116.10;;;81.00;;
35290;SDS011;21411;50.024;19.220;2024-02-15T06:01:08;107.80;;;78.50;;
35290;SDS011;21411;50.024;19.220;2024-02-15T06:03:39;98.30;;;75.60;;
35290;SDS011;21411;50.024;19.220;2024-02-15T06:06:07;96.30;;;74.20;;
35290;SDS011;21411;50.024;19.220;2024-02-15T06:08:34;94.30;;;75.80;;
35290;SDS011;21411;50.024;19.220;2024-02-15T06:11:01;92.40;;;70.70;;
35290;SDS011;21411;50.024;19.220;2024-02-15T06:13:28;96.50;;;72.90;;
35290;SDS011;21411;50.024;19.220;2024-02-15T06:15:55;93.70;;;73.50;;
35290;SDS011;21411;50.024;19.220;2024-02-15T06:18:26;96.40;;;73.40;;
35290;SDS011;21411;50.024;19.220;2024-02-15T06:20:55;95.10;;;72.60;;
35290;SDS011;21411;50.024;19.220;2024-02-15T06:23:28;95.80;;;73.20;;
35290;SDS011;21411;50.024;19.220;2024-02-15T06:25:55;95.60;;;74.30;;
35290;SDS011;21411;50.024;19.220;2024-02-15T06:28:24;104.50;;;80.00;;
35290;SDS011;21411;50.024;19.220;2024-02-15T06:31:10;97.30;;;76.50;;
35290;SDS011;21411;50.024;19.220;2024-02-15T06:33:56;101.90;;;85.50;;
35290;SDS011;21411;50.024;19.220;2024-02-15T06:36:45;105.80;;;85.70;;
35290;SDS011;21411;50.024;19.220;2024-02-15T06:39:32;97.80;;;77.30;;
35290;SDS011;21411;50.024;19.220;2024-02-15T06:42:10;101.40;;;79.10;;
35290;SDS011;21411;50.024;19.220;2024-02-15T06:44:41;103.00;;;80.50;;
35290;SDS011;21411;50.024;19.220;2024-02-15T06:47:09;96.10;;;77.00;;
35290;SDS011;21411;50.024;19.220;2024-02-15T06:49:37;100.20;;;74.80;;
35290;SDS011;21411;50.024;19.220;2024-02-15T06:52:07;102.70;;;79.00;;
35290;SDS011;21411;50.024;19.220;2024-02-15T06:54:34;103.80;;;83.40;;
35290;SDS011;21411;50.024;19.220;2024-02-15T06:57:02;101.50;;;78.20;;
35290;SDS011;21411;50.024;19.220;2024-02-15T06:59:30;97.90;;;76.80;;
35290;SDS011;21411;50.024;19.220;2024-02-15T07:02:01;91.80;;;77.00;;
35290;SDS011;21411;50.024;19.220;2024-02-15T07:06:58;93.20;;;74.50;;
35290;SDS011;21411;50.024;19.220;2024-02-15T07:09:26;101.20;;;74.40;;
35290;SDS011;21411;50.024;19.220;2024-02-15T07:11:53;87.90;;;69.00;;
35290;SDS011;21411;50.024;19.220;2024-02-15T07:14:20;91.80;;;68.60;;
35290;SDS011;21411;50.024;19.220;2024-02-15T07:16:47;89.60;;;72.10;;
35290;SDS011;21411;50.024;19.220;2024-02-15T07:19:15;91.70;;;73.90;;
35290;SDS011;21411;50.024;19.220;2024-02-15T07:21:42;134.20;;;97.40;;
35290;SDS011;21411;50.024;19.220;2024-02-15T07:24:10;130.00;;;94.20;;
35290;SDS011;21411;50.024;19.220;2024-02-15T07:26:37;97.50;;;77.70;;
35290;SDS011;21411;50.024;19.220;2024-02-15T07:29:03;107.30;;;76.80;;
35290;SDS011;21411;50.024;19.220;2024-02-15T07:31:34;132.50;;;86.60;;
35290;SDS011;21411;50.024;19.220;2024-02-15T07:34:00;122.60;;;83.10;;
35290;SDS011;21411;50.024;19.220;2024-02-15T07:36:28;118.50;;;86.00;;
35290;SDS011;21411;50.024;19.220;2024-02-15T07:38:54;103.90;;;76.70;;
35290;SDS011;21411;50.024;19.220;2024-02-15T07:41:26;92.10;;;70.10;;
35290;SDS011;21411;50.024;19.220;2024-02-15T07:43:54;83.50;;;65.00;;
35290;SDS011;21411;50.024;19.220;2024-02-15T07:46:21;87.30;;;68.90;;
35290;SDS011;21411;50.024;19.220;2024-02-15T07:48:50;80.40;;;63.10;;
35290;SDS011;21411;50.024;19.220;2024-02-15T07:51:17;84.40;;;63.90;;
35290;SDS011;21411;50.024;19.220;2024-02-15T07:53:45;78.70;;;65.00;;
35290;SDS011;21411;50.024;19.220;2024-02-15T07:56:12;84.30;;;65.30;;
35290;SDS011;21411;50.024;19.220;2024-02-15T07:58:41;81.80;;;65.30;;
35290;SDS011;21411;50.024;19.220;2024-02-15T08:01:08;69.30;;;57.90;;
35290;SDS011;21411;50.024;19.220;2024-02-15T08:03:37;76.80;;;59.20;;
35290;SDS011;21411;50.024;19.220;2024-02-15T08:06:04;74.30;;;57.10;;
35290;SDS011;21411;50.024;19.220;2024-02-15T08:08:33;78.10;;;58.40;;
35290;SDS011;21411;50.024;19.220;2024-02-15T08:11:03;74.60;;;57.20;;
35290;SDS011;21411;50.024;19.220;2024-02-15T08:13:30;64.00;;;52.60;;
35290;SDS011;21411;50.024;19.220;2024-02-15T08:15:57;71.40;;;54.80;;
35290;SDS011;21411;50.024;19.220;2024-02-15T08:18:23;68.20;;;54.90;;
35290;SDS011;21411;50.024;19.220;2024-02-15T08:20:52;73.10;;;57.70;;
35290;SDS011;21411;50.024;19.220;2024-02-15T08:23:18;191.20;;;134.10;;
35290;SDS011;21411;50.024;19.220;2024-02-15T08:25:45;151.90;;;111.20;;
35290;SDS011;21411;50.024;19.220;2024-02-15T08:28:12;120.20;;;91.90;;
35290;SDS011;21411;50.024;19.220;2024-02-15T08:30:39;116.80;;;92.50;;
35290;SDS011;21411;50.024;19.220;2024-02-15T08:33:06;97.20;;;77.60;;
35290;SDS011;21411;50.024;19.220;2024-02-15T08:35:32;80.30;;;66.60;;
35290;SDS011;21411;50.024;19.220;2024-02-15T08:37:59;76.50;;;63.10;;
35290;SDS011;21411;50.024;19.220;2024-02-15T08:40:26;66.80;;;54.60;;
35290;SDS011;21411;50.024;19.220;2024-02-15T08:42:54;66.00;;;53.40;;
35290;SDS011;21411;50.024;19.220;2024-02-15T08:45:21;63.70;;;50.30;;
35290;SDS011;21411;50.024;19.220;2024-02-15T08:47:49;62.70;;;50.60;;
35290;SDS011;21411;50.024;19.220;2024-02-15T08:50:19;58.20;;;45.50;;
35290;SDS011;21411;50.024;19.220;2024-02-15T08:52:47;67.70;;;55.40;;
35290;SDS011;21411;50.024;19.220;2024-02-15T08:55:14;60.30;;;49.30;;
35290;SDS011;21411;50.024;19.220;2024-02-15T08:57:41;59.60;;;48.20;;
35290;SDS011;21411;50.024;19.220;2024-02-15T09:00:07;51.40;;;41.10;;
35290;SDS011;21411;50.024;19.220;2024-02-15T09:02:39;50.40;;;41.00;;
35290;SDS011;21411;50.024;19.220;2024-02-15T09:05:06;48.00;;;36.90;;
35290;SDS011;21411;50.024;19.220;2024-02-15T09:07:33;42.30;;;34.10;;
35290;SDS011;21411;50.024;19.220;2024-02-15T09:10:00;33.60;;;28.50;;
35290;SDS011;21411;50.024;19.220;2024-02-15T09:12:27;36.50;;;28.00;;
35290;SDS011;21411;50.024;19.220;2024-02-15T09:14:53;31.10;;;23.30;;
35290;SDS011;21411;50.024;19.220;2024-02-15T09:17:20;26.30;;;20.30;;
35290;SDS011;21411;50.024;19.220;2024-02-15T09:19:47;21.10;;;15.10;;
35290;SDS011;21411;50.024;19.220;2024-02-15T09:22:15;18.60;;;14.50;;
35290;SDS011;21411;50.024;19.220;2024-02-15T09:24:44;16.40;;;12.40;;
35290;SDS011;21411;50.024;19.220;2024-02-15T09:27:10;13.60;;;10.60;;
35290;SDS011;21411;50.024;19.220;2024-02-15T09:29:38;13.50;;;10.00;;
35290;SDS011;21411;50.024;19.220;2024-02-15T09:32:06;13.40;;;9.70;;
35290;SDS011;21411;50.024;19.220;2024-02-15T09:34:33;12.90;;;8.80;;
35290;SDS011;21411;50.024;19.220;2024-02-15T09:37:00;14.50;;;8.50;;
35290;SDS011;21411;50.024;19.220;2024-02-15T09:39:26;10.40;;;7.80;;
35290;SDS011;21411;50.024;19.220;2024-02-15T09:41:54;11.10;;;8.00;;
35290;SDS011;21411;50.024;19.220;2024-02-15T09:44:25;11.40;;;7.90;;
35290;SDS011;21411;50.024;19.220;2024-02-15T09:47:05;10.20;;;7.70;;
35290;SDS011;21411;50.024;19.220;2024-02-15T09:49:36;8.40;;;6.70;;
35290;SDS011;21411;50.024;19.220;2024-02-15T09:52:03;9.30;;;6.30;;
35290;SDS011;21411;50.024;19.220;2024-02-15T09:54:31;7.90;;;6.60;;
35290;SDS011;21411;50.024;19.220;2024-02-15T09:57:01;9.10;;;6.40;;
35290;SDS011;21411;50.024;19.220;2024-02-15T09:59:29;9.90;;;5.70;;
35290;SDS011;21411;50.024;19.220;2024-02-15T10:01:58;8.60;;;6.80;;
35290;SDS011;21411;50.024;19.220;2024-02-15T10:04:25;10.90;;;7.60;;
35290;SDS011;21411;50.024;19.220;2024-02-15T10:06:52;10.30;;;7.40;;
35290;SDS011;21411;50.024;19.220;2024-02-15T10:11:56;9.40;;;7.00;;
35290;SDS011;21411;50.024;19.220;2024-02-15T10:14:28;8.10;;;6.50;;
35290;SDS011;21411;50.024;19.220;2024-02-15T10:16:56;7.60;;;6.00;;
35290;SDS011;21411;50.024;19.220;2024-02-15T10:19:23;10.40;;;6.80;;
35290;SDS011;21411;50.024;19.220;2024-02-15T10:21:54;8.90;;;7.00;;
35290;SDS011;21411;50.024;19.220;2024-02-15T10:24:24;9.00;;;5.60;;
35290;SDS011;21411;50.024;19.220;2024-02-15T10:26:51;5.60;;;4.70;;
35290;SDS011;21411;50.024;19.220;2024-02-15T10:29:19;5.90;;;4.70;;
35290;SDS011;21411;50.024;19.220;2024-02-15T10:31:52;6.60;;;5.90;;
35290;SDS011;21411;50.024;19.220;2024-02-15T10:34:23;7.50;;;5.90;;
35290;SDS011;21411;50.024;19.220;2024-02-15T10:36:51;7.50;;;5.90;;
35290;SDS011;21411;50.024;19.220;2024-02-15T10:39:19;6.90;;;4.90;;
35290;SDS011;21411;50.024;19.220;2024-02-15T10:41:46;6.10;;;4.60;;
35290;SDS011;21411;50.024;19.220;2024-02-15T10:44:17;6.40;;;4.10;;
35290;SDS011;21411;50.024;19.220;2024-02-15T10:46:45;6.10;;;3.10;;
35290;SDS011;21411;50.024;19.220;2024-02-15T10:49:13;2.90;;;1.80;;
35290;SDS011;21411;50.024;19.220;2024-02-15T10:51:43;2.70;;;2.30;;
35290;SDS011;21411;50.024;19.220;2024-02-15T10:54:12;4.40;;;2.70;;
35290;SDS011;21411;50.024;19.220;2024-02-15T10:56:43;3.40;;;2.10;;
35290;SDS011;21411;50.024;19.220;2024-02-15T11:01:49;2.80;;;1.90;;
35290;SDS011;21411;50.024;19.220;2024-02-15T11:04:21;3.20;;;1.80;;
35290;SDS011;21411;50.024;19.220;2024-02-15T11:06:49;5.90;;;2.90;;
35290;SDS011;21411;50.024;19.220;2024-02-15T11:09:17;3.50;;;2.40;;
35290;SDS011;21411;50.024;19.220;2024-02-15T11:11:44;6.00;;;3.10;;
35290;SDS011;21411;50.024;19.220;2024-02-15T11:14:31;7.70;;;3.00;;
35290;SDS011;21411;50.024;19.220;2024-02-15T11:17:00;5.00;;;2.90;;
35290;SDS011;21411;50.024;19.220;2024-02-15T11:22:01;7.50;;;3.60;;
35290;SDS011;21411;50.024;19.220;2024-02-15T11:24:36;4.00;;;2.00;;
35290;SDS011;21411;50.024;19.220;2024-02-15T11:27:04;7.00;;;4.30;;
35290;SDS011;21411;50.024;19.220;2024-02-15T11:32:42;2.50;;;1.90;;
35290;SDS011;21411;50.024;19.220;2024-02-15T11:35:13;6.60;;;4.20;;
35290;SDS011;21411;50.024;19.220;2024-02-15T11:37:50;3.00;;;2.10;;
35290;SDS011;21411;50.024;19.220;2024-02-15T11:43:07;4.50;;;2.40;;
35290;SDS011;21411;50.024;19.220;2024-02-15T11:45:36;4.40;;;2.70;;
35290;SDS011;21411;50.024;19.220;2024-02-15T11:48:07;7.30;;;5.30;;
35290;SDS011;21411;50.024;19.220;2024-02-15T11:50:38;5.50;;;3.40;;
35290;SDS011;21411;50.024;19.220;2024-02-15T11:53:08;7.60;;;4.10;;
35290;SDS011;21411;50.024;19.220;2024-02-15T11:55:36;7.90;;;4.60;;
35290;SDS011;21411;50.024;19.220;2024-02-15T11:58:09;11.60;;;6.30;;
35290;SDS011;21411;50.024;19.220;2024-02-15T12:00:37;4.70;;;3.00;;
35290;SDS011;21411;50.024;19.220;2024-02-15T12:03:22;4.70;;;2.60;;
35290;SDS011;21411;50.024;19.220;2024-02-15T12:06:08;5.80;;;3.10;;
35290;SDS011;21411;50.024;19.220;2024-02-15T12:08:54;4.00;;;2.70;;
35290;SDS011;21411;50.024;19.220;2024-02-15T12:11:40;4.80;;;2.70;;
35290;SDS011;21411;50.024;19.220;2024-02-15T12:14:25;5.50;;;3.70;;
35290;SDS011;21411;50.024;19.220;2024-02-15T12:17:11;3.70;;;2.80;;
35290;SDS011;21411;50.024;19.220;2024-02-15T12:20:00;4.20;;;3.00;;
35290;SDS011;21411;50.024;19.220;2024-02-15T12:22:44;3.10;;;2.30;;
35290;SDS011;21411;50.024;19.220;2024-02-15T12:25:14;4.40;;;2.90;;
35290;SDS011;21411;50.024;19.220;2024-02-15T12:27:43;3.50;;;3.20;;
35290;SDS011;21411;50.024;19.220;2024-02-15T12:30:16;5.20;;;3.80;;
35290;SDS011;21411;50.024;19.220;2024-02-15T12:32:50;4.20;;;2.70;;
35290;SDS011;21411;50.024;19.220;2024-02-15T12:35:21;3.40;;;3.00;;
35290;SDS011;21411;50.024;19.220;2024-02-15T12:38:00;3.70;;;2.20;;
35290;SDS011;21411;50.024;19.220;2024-02-15T12:40:32;2.70;;;2.30;;
35290;SDS011;21411;50.024;19.220;2024-02-15T12:43:00;4.70;;;3.30;;
35290;SDS011;21411;50.024;19.220;2024-02-15T12:45:27;5.60;;;3.60;;
35290;SDS011;21411;50.024;19.220;2024-02-15T12:47:54;3.50;;;2.80;;
35290;SDS011;21411;50.024;19.220;2024-02-15T12:50:22;5.20;;;3.70;;
35290;SDS011;21411;50.024;19.220;2024-02-15T12:52:50;5.30;;;3.10;;
35290;SDS011;21411;50.024;19.220;2024-02-15T12:55:18;3.90;;;2.90;;
35290;SDS011;21411;50.024;19.220;2024-02-15T12:57:52;4.30;;;3.10;;
35290;SDS011;21411;50.024;19.220;2024-02-15T13:00:25;5.50;;;3.70;;
35290;SDS011;21411;50.024;19.220;2024-02-15T13:02:58;4.40;;;3.20;;
35290;SDS011;21411;50.024;19.220;2024-02-15T13:05:26;3.80;;;3.40;;
35290;SDS011;21411;50.024;19.220;2024-02-15T13:07:54;4.20;;;3.10;;
35290;SDS011;21411;50.024;19.220;2024-02-15T13:10:21;5.20;;;3.40;;
35290;SDS011;21411;50.024;19.220;2024-02-15T13:12:48;3.70;;;3.30;;
35290;SDS011;21411;50.024;19.220;2024-02-15T13:15:17;5.00;;;3.10;;
35290;SDS011;21411;50.024;19.220;2024-02-15T13:17:46;5.50;;;4.10;;
35290;SDS011;21411;50.024;19.220;2024-02-15T13:20:20;4.20;;;3.00;;
35290;SDS011;21411;50.024;19.220;2024-02-15T13:22:56;4.30;;;3.30;;
35290;SDS011;21411;50.024;19.220;2024-02-15T13:25:35;3.60;;;3.10;;
35290;SDS011;21411;50.024;19.220;2024-02-15T13:28:09;5.20;;;4.00;;
35290;SDS011;21411;50.024;19.220;2024-02-15T13:30:39;11.10;;;8.50;;
35290;SDS011;21411;50.024;19.220;2024-02-15T13:33:07;6.50;;;5.10;;
35290;SDS011;21411;50.024;19.220;2024-02-15T13:35:34;8.80;;;4.90;;
35290;SDS011;21411;50.024;19.220;2024-02-15T13:38:02;7.00;;;4.00;;
35290;SDS011;21411;50.024;19.220;2024-02-15T13:40:29;5.80;;;4.00;;
35290;SDS011;21411;50.024;19.220;2024-02-15T13:42:59;4.90;;;3.80;;
35290;SDS011;21411;50.024;19.220;2024-02-15T13:45:31;4.80;;;3.90;;
35290;SDS011;21411;50.024;19.220;2024-02-15T13:48:05;4.80;;;4.30;;
35290;SDS011;21411;50.024;19.220;2024-02-15T13:53:03;6.30;;;4.30;;
35290;SDS011;21411;50.024;19.220;2024-02-15T13:55:30;5.60;;;4.60;;
35290;SDS011;21411;50.024;19.220;2024-02-15T13:57:58;5.80;;;4.40;;
35290;SDS011;21411;50.024;19.220;2024-02-15T14:00:26;4.50;;;3.90;;
35290;SDS011;21411;50.024;19.220;2024-02-15T14:02:57;5.20;;;3.60;;
35290;SDS011;21411;50.024;19.220;2024-02-15T14:05:25;4.40;;;3.90;;
35290;SDS011;21411;50.024;19.220;2024-02-15T14:07:55;6.00;;;3.40;;
35290;SDS011;21411;50.024;19.220;2024-02-15T14:10:24;6.20;;;3.40;;
35290;SDS011;21411;50.024;19.220;2024-02-15T14:12:53;3.80;;;3.10;;
35290;SDS011;21411;50.024;19.220;2024-02-15T14:15:34;5.50;;;3.20;;
35290;SDS011;21411;50.024;19.220;2024-02-15T14:18:13;5.30;;;3.40;;
35290;SDS011;21411;50.024;19.220;2024-02-15T14:20:40;5.00;;;3.40;;
35290;SDS011;21411;50.024;19.220;2024-02-15T14:23:09;5.60;;;3.60;;
35290;SDS011;21411;50.024;19.220;2024-02-15T14:25:42;5.50;;;4.00;;
35290;SDS011;21411;50.024;19.220;2024-02-15T14:28:09;9.30;;;4.00;;
35290;SDS011;21411;50.024;19.220;2024-02-15T14:30:36;8.00;;;3.40;;
35290;SDS011;21411;50.024;19.220;2024-02-15T14:33:21;4.30;;;3.60;;
35290;SDS011;21411;50.024;19.220;2024-02-15T14:35:49;5.50;;;3.70;;
35290;SDS011;21411;50.024;19.220;2024-02-15T14:38:19;6.00;;;4.60;;
35290;SDS011;21411;50.024;19.220;2024-02-15T14:40:50;8.00;;;5.00;;
35290;SDS011;21411;50.024;19.220;2024-02-15T14:43:22;7.20;;;4.80;;
35290;SDS011;21411;50.024;19.220;2024-02-15T14:45:53;7.60;;;5.10;;
35290;SDS011;21411;50.024;19.220;2024-02-15T14:48:20;10.10;;;5.40;;